Time;durP1;ratioP1;P1;durP2;ratioP2;P2;SDS_P1;SDS_P2;PMS_P1;PMS_P2;Temp;Humidity;BMP_temperature;BMP_pressure;BME280_temperature;BME280_humidity;BME280_pressure;Samples;Min_cycle;Max_cycle;Signal;HPM_P1;HPM_P2
2021/12/03 00:01:16;;;;;;;2.35;2.10;;;8.50;99.90;;;;;;5071042;28;20040;-75
2021/12/03 00:03:42;;;;;;;2.40;2.15;;;8.50;99.90;;;;;;5070550;28;20027;-75
2021/12/03 00:06:08;;;;;;;4.80;2.83;;;8.70;99.90;;;;;;5071208;28;20029;-74
2021/12/03 00:08:34;;;;;;;3.03;2.50;;;8.70;99.90;;;;;;5073997;28;20118;-75
2021/12/03 00:11:02;;;;;;;4.63;2.35;;;8.70;99.90;;;;;;5074441;28;20116;-76
2021/12/03 00:13:31;;;;;;;3.28;2.42;;;8.70;99.90;;;;;;5073949;28;20421;-74
2021/12/03 00:15:58;;;;;;;4.80;2.40;;;8.80;99.90;;;;;;5073370;28;20029;-75
2021/12/03 00:18:25;;;;;;;2.85;2.63;;;8.80;99.90;;;;;;5072920;28;20344;-75
2021/12/03 00:20:52;;;;;;;3.28;2.60;;;8.80;99.90;;;;;;5074496;28;20031;-75
2021/12/03 00:23:19;;;;;;;2.63;2.40;;;8.80;99.90;;;;;;5074374;28;20112;-76
2021/12/03 00:25:45;;;;;;;3.75;2.80;;;8.90;99.90;;;;;;5073885;28;20085;-75
2021/12/03 00:28:11;;;;;;;3.00;2.70;;;8.90;99.90;;;;;;5074483;28;20021;-74
2021/12/03 00:30:37;;;;;;;3.58;3.15;;;8.90;99.90;;;;;;5073539;28;20031;-74
2021/12/03 00:33:05;;;;;;;5.20;3.30;;;8.90;99.90;;;;;;5074195;28;20029;-75
2021/12/03 00:35:31;;;;;;;3.42;3.05;;;8.90;99.90;;;;;;5073274;28;20470;-75
2021/12/03 00:37:58;;;;;;;3.75;3.42;;;8.90;99.90;;;;;;5072949;28;20028;-75
2021/12/03 00:40:30;;;;;;;3.78;3.38;;;8.90;99.90;;;;;;5073489;28;20059;-75
2021/12/03 00:42:57;;;;;;;4.28;3.47;;;8.90;99.90;;;;;;5074434;28;20028;-75
2021/12/03 00:45:23;;;;;;;4.72;3.70;;;8.90;99.90;;;;;;5084949;28;20040;-76
2021/12/03 00:47:49;;;;;;;4.65;3.83;;;8.90;99.90;;;;;;5074448;28;20025;-75
2021/12/03 00:50:22;;;;;;;4.25;3.55;;;8.90;99.90;;;;;;5073974;28;20042;-75
2021/12/03 00:52:49;;;;;;;3.90;3.50;;;9.00;99.90;;;;;;5072369;28;20135;-75
2021/12/03 00:55:16;;;;;;;4.60;4.20;;;8.90;99.90;;;;;;5074175;28;20032;-75
2021/12/03 00:57:42;;;;;;;5.63;5.07;;;9.00;99.90;;;;;;5073005;28;20028;-75
2021/12/03 01:00:23;;;;;;;6.18;5.25;;;9.10;99.90;;;;;;5072520;28;20098;-76
2021/12/03 01:02:50;;;;;;;5.47;4.68;;;9.10;99.90;;;;;;5073636;28;20029;-75
2021/12/03 01:05:16;;;;;;;5.07;4.50;;;9.10;99.90;;;;;;5073637;28;20033;-76
2021/12/03 01:07:42;;;;;;;6.32;5.30;;;9.20;99.90;;;;;;5072878;28;20076;-76
2021/12/03 01:10:08;;;;;;;4.70;4.30;;;9.20;99.90;;;;;;5072294;28;20060;-76
2021/12/03 01:12:36;;;;;;;5.07;4.55;;;9.20;99.90;;;;;;5072245;28;20032;-77
2021/12/03 01:15:03;;;;;;;6.72;5.13;;;9.20;99.90;;;;;;5072200;28;20059;-76
2021/12/03 01:17:28;;;;;;;6.70;4.75;;;9.20;99.90;;;;;;5072663;28;20086;-76
2021/12/03 01:19:54;;;;;;;6.00;5.38;;;9.20;99.90;;;;;;5055648;28;20020;-76
2021/12/03 01:22:20;;;;;;;9.07;5.97;;;9.20;99.90;;;;;;5073114;28;20079;-76
2021/12/03 01:24:45;;;;;;;7.43;5.60;;;9.20;99.90;;;;;;5072652;28;20453;-76
2021/12/03 01:27:11;;;;;;;8.05;6.38;;;9.10;99.90;;;;;;5073081;28;20035;-76
2021/12/03 01:29:37;;;;;;;7.72;5.90;;;9.10;99.90;;;;;;5072521;28;20025;-76
2021/12/03 01:32:03;;;;;;;9.05;6.03;;;9.20;99.90;;;;;;5072983;28;20037;-76
2021/12/03 01:34:29;;;;;;;7.53;5.95;;;9.20;99.90;;;;;;5072428;28;20078;-77
2021/12/03 01:36:54;;;;;;;7.65;5.93;;;9.20;99.90;;;;;;5072958;28;20024;-75
2021/12/03 01:39:20;;;;;;;6.95;5.93;;;9.20;99.90;;;;;;5073041;28;20025;-76
2021/12/03 01:41:46;;;;;;;11.18;7.18;;;9.30;99.90;;;;;;5072218;28;20852;-76
2021/12/03 01:44:12;;;;;;;8.38;6.32;;;9.20;99.90;;;;;;5072987;28;20201;-76
2021/12/03 01:46:38;;;;;;;9.38;6.95;;;9.20;99.90;;;;;;5071917;28;20467;-77
2021/12/03 01:49:06;;;;;;;9.00;6.90;;;9.30;99.90;;;;;;5073045;28;20035;-76
2021/12/03 01:51:31;;;;;;;7.85;6.85;;;9.30;99.90;;;;;;5070199;28;20091;-77
2021/12/03 01:53:57;;;;;;;10.23;7.47;;;9.30;99.90;;;;;;5072693;28;20067;-76
2021/12/03 01:56:24;;;;;;;8.13;7.03;;;9.30;99.90;;;;;;5072787;28;20134;-76
2021/12/03 01:58:52;;;;;;;9.13;7.97;;;9.30;99.90;;;;;;5072319;28;20103;-76
2021/12/03 02:01:23;;;;;;;9.88;8.18;;;9.30;99.90;;;;;;5072594;28;20039;-76
2021/12/03 02:03:52;;;;;;;9.13;6.88;;;9.30;99.90;;;;;;5076052;28;20035;-76
2021/12/03 02:06:19;;;;;;;9.32;6.63;;;9.30;99.90;;;;;;5082356;28;20464;-76
2021/12/03 02:08:44;;;;;;;10.02;7.00;;;9.30;99.90;;;;;;5072321;28;20082;-76
2021/12/03 02:11:12;;;;;;;9.20;6.93;;;9.30;99.90;;;;;;5072457;28;20032;-76
2021/12/03 02:13:39;;;;;;;9.95;6.82;;;9.30;99.90;;;;;;5071774;28;20051;-76
2021/12/03 02:16:10;;;;;;;10.73;7.30;;;9.30;99.90;;;;;;5072380;28;20036;-76
2021/12/03 02:18:36;;;;;;;8.00;6.50;;;9.30;99.90;;;;;;5071525;28;20025;-76
2021/12/03 02:21:04;;;;;;;8.05;6.55;;;9.30;99.90;;;;;;5072256;28;20032;-76
2021/12/03 02:23:30;;;;;;;6.70;5.88;;;9.20;99.90;;;;;;5071266;28;20029;-77
2021/12/03 02:25:56;;;;;;;6.43;5.43;;;9.20;99.90;;;;;;5071159;28;20402;-76
2021/12/03 02:28:24;;;;;;;5.05;4.55;;;9.30;99.90;;;;;;5072532;28;20388;-76
2021/12/03 02:30:52;;;;;;;5.43;4.15;;;9.20;99.90;;;;;;5070798;28;20028;-76
2021/12/03 02:33:18;;;;;;;6.45;3.97;;;9.30;99.90;;;;;;5072208;28;20061;-76
2021/12/03 02:35:44;;;;;;;4.25;3.85;;;9.30;99.90;;;;;;5053306;28;20029;-76
2021/12/03 02:38:14;;;;;;;3.45;2.90;;;9.30;99.90;;;;;;5072173;28;20020;-76
2021/12/03 02:40:40;;;;;;;2.40;2.20;;;9.30;99.90;;;;;;5070203;28;20106;-75
2021/12/03 02:43:06;;;;;;;3.40;2.10;;;9.30;99.90;;;;;;5072497;28;20079;-75
2021/12/03 02:45:32;;;;;;;1.27;1.17;;;9.40;99.90;;;;;;5071359;28;20020;-77
2021/12/03 02:48:02;;;;;;;1.52;0.90;;;9.40;99.90;;;;;;5071667;28;20027;-75
2021/12/03 02:50:28;;;;;;;1.70;1.00;;;9.40;99.90;;;;;;5070401;28;20060;-77
2021/12/03 02:52:54;;;;;;;1.85;0.57;;;9.40;99.90;;;;;;5071497;28;20106;-75
2021/12/03 02:55:22;;;;;;;1.00;0.52;;;9.40;99.90;;;;;;5071947;28;20028;-75
2021/12/03 02:57:47;;;;;;;2.60;0.95;;;9.40;99.90;;;;;;5071238;28;20769;-75
2021/12/03 03:00:16;;;;;;;0.43;0.43;;;9.40;99.90;;;;;;5071949;28;20103;-76
2021/12/03 03:02:42;;;;;;;0.70;0.60;;;9.40;99.90;;;;;;5069470;28;20032;-76
2021/12/03 03:05:11;;;;;;;0.65;0.47;;;9.40;99.90;;;;;;5070398;28;20021;-76
2021/12/03 03:07:37;;;;;;;1.55;0.47;;;9.40;99.90;;;;;;5071369;28;20021;-77
2021/12/03 03:10:08;;;;;;;1.02;0.60;;;9.40;99.90;;;;;;5071533;28;20032;-76
2021/12/03 03:12:34;;;;;;;1.90;0.50;;;9.40;99.90;;;;;;5071115;28;20040;-77
2021/12/03 03:15:00;;;;;;;2.80;0.45;;;9.30;99.90;;;;;;5071932;28;20020;-76
2021/12/03 03:17:28;;;;;;;0.82;0.70;;;9.30;99.90;;;;;;5071740;28;20056;-76
2021/12/03 03:19:56;;;;;;;1.13;0.50;;;9.30;99.90;;;;;;5070751;28;20090;-76
2021/12/03 03:22:22;;;;;;;3.30;0.47;;;9.20;99.90;;;;;;5073227;28;20085;-76
2021/12/03 03:24:53;;;;;;;2.83;0.50;;;9.20;99.90;;;;;;5080984;28;20471;-76
2021/12/03 03:27:21;;;;;;;1.98;0.55;;;9.10;99.90;;;;;;5071628;28;20031;-76
2021/12/03 03:29:48;;;;;;;1.20;0.57;;;9.00;99.90;;;;;;5070599;28;20099;-76
2021/12/03 03:32:15;;;;;;;2.97;0.73;;;9.00;99.90;;;;;;5071598;28;20032;-75
2021/12/03 03:34:42;;;;;;;2.22;0.40;;;8.90;99.90;;;;;;5070643;28;20170;-76
2021/12/03 03:37:08;;;;;;;5.18;0.50;;;8.80;99.90;;;;;;5071522;28;20029;-76
2021/12/03 03:39:34;;;;;;;1.80;0.40;;;8.70;99.90;;;;;;5070782;28;20031;-77
2021/12/03 03:42:01;;;;;;;2.13;0.40;;;8.70;99.90;;;;;;5074194;28;20381;-76
2021/12/03 03:44:27;;;;;;;3.22;0.57;;;8.70;99.90;;;;;;5075292;28;20086;-76
2021/12/03 03:46:54;;;;;;;6.15;0.70;;;8.70;99.90;;;;;;5074298;28;20040;-76
2021/12/03 03:49:22;;;;;;;2.15;0.63;;;8.60;99.90;;;;;;5075596;28;20082;-76
2021/12/03 03:51:48;;;;;;;3.63;0.60;;;8.60;99.90;;;;;;5073902;28;20071;-76
2021/12/03 03:54:14;;;;;;;4.95;0.60;;;8.60;99.90;;;;;;5075020;28;20454;-75
2021/12/03 03:56:40;;;;;;;3.60;0.47;;;8.60;99.90;;;;;;5074040;28;20044;-76
2021/12/03 03:59:06;;;;;;;5.20;0.80;;;8.70;99.90;;;;;;5075171;28;20029;-76
2021/12/03 04:01:32;;;;;;;1.70;0.57;;;8.60;99.90;;;;;;5074700;28;20041;-76
2021/12/03 04:03:58;;;;;;;4.70;0.80;;;8.60;99.90;;;;;;5074471;28;20021;-76
2021/12/03 04:06:24;;;;;;;7.15;0.95;;;8.60;99.90;;;;;;5074713;28;20104;-76
2021/12/03 04:08:50;;;;;;;4.75;1.05;;;8.60;99.90;;;;;;5073940;28;20021;-76
2021/12/03 04:11:21;;;;;;;6.65;1.23;;;8.60;99.90;;;;;;5074621;28;20024;-76
2021/12/03 04:13:47;;;;;;;7.38;0.93;;;8.50;99.90;;;;;;5072960;28;20042;-76
2021/12/03 04:16:13;;;;;;;10.23;1.73;;;8.50;99.90;;;;;;5074545;28;20021;-76
2021/12/03 04:18:39;;;;;;;6.53;1.05;;;8.50;99.90;;;;;;5074083;28;20063;-77
2021/12/03 04:21:05;;;;;;;4.38;0.85;;;8.40;99.90;;;;;;5074916;28;20399;-76
2021/12/03 04:23:31;;;;;;;5.18;1.05;;;8.40;99.90;;;;;;5074428;28;20459;-76
2021/12/03 04:25:57;;;;;;;8.48;1.42;;;8.40;99.90;;;;;;5073559;28;20099;-76
2021/12/03 04:28:23;;;;;;;7.30;1.50;;;8.40;99.90;;;;;;5074343;28;20032;-76
2021/12/03 04:30:50;;;;;;;5.88;1.20;;;8.30;99.90;;;;;;5073673;28;20027;-75
2021/12/03 04:33:16;;;;;;;10.18;1.40;;;8.20;99.90;;;;;;5074447;28;20024;-76
2021/12/03 04:35:42;;;;;;;9.40;1.35;;;8.10;99.90;;;;;;5073223;28;20032;-76
2021/12/03 04:38:08;;;;;;;5.82;1.58;;;8.10;99.90;;;;;;5080065;28;20032;-73
2021/12/03 04:40:37;;;;;;;6.38;1.70;;;8.00;99.90;;;;;;5079554;28;20024;-75
2021/12/03 04:43:04;;;;;;;7.25;1.45;;;8.00;99.90;;;;;;5073911;28;20028;-75
2021/12/03 04:45:29;;;;;;;12.20;1.55;;;7.90;99.90;;;;;;5074200;28;20024;-74
2021/12/03 04:47:57;;;;;;;6.45;1.45;;;7.90;99.90;;;;;;5072137;28;20021;-75
2021/12/03 04:50:25;;;;;;;11.55;1.65;;;7.90;99.90;;;;;;5074185;28;20032;-74
2021/12/03 04:52:52;;;;;;;13.45;1.55;;;7.90;99.90;;;;;;5072550;28;20140;-75
2021/12/03 04:55:18;;;;;;;9.20;1.70;;;7.90;99.90;;;;;;5072576;28;20060;-74
2021/12/03 04:57:44;;;;;;;7.95;1.60;;;7.90;99.90;;;;;;5073196;28;20035;-75
2021/12/03 05:00:18;;;;;;;8.57;1.80;;;7.90;99.90;;;;;;5073953;28;20025;-75
2021/12/03 05:02:44;;;;;;;12.52;1.67;;;7.80;99.90;;;;;;5071829;28;20460;-75
2021/12/03 05:05:10;;;;;;;10.88;2.25;;;7.80;99.90;;;;;;5073517;28;20364;-75
2021/12/03 05:10:07;;;;;;;14.90;2.40;;;7.80;99.90;;;;;;5073416;28;20490;-74
2021/12/03 05:12:33;;;;;;;6.88;1.63;;;7.80;99.90;;;;;;5073332;28;20037;-74
2021/12/03 05:14:59;;;;;;;7.70;1.52;;;7.80;99.90;;;;;;5072701;28;20047;-74
2021/12/03 05:17:25;;;;;;;10.82;2.13;;;7.80;99.90;;;;;;5072456;28;20149;-74
2021/12/03 05:19:50;;;;;;;8.70;2.03;;;7.90;99.90;;;;;;5072752;28;20028;-74
2021/12/03 05:22:16;;;;;;;9.07;2.45;;;7.90;99.90;;;;;;5073512;28;20086;-74
2021/12/03 05:24:45;;;;;;;7.97;1.90;;;7.90;99.90;;;;;;5072492;28;20039;-75
2021/12/03 05:27:17;;;;;;;10.05;2.13;;;7.90;99.90;;;;;;5073332;28;20024;-74
2021/12/03 05:29:45;;;;;;;14.75;2.38;;;7.90;99.90;;;;;;5072602;28;20043;-75
2021/12/03 05:32:12;;;;;;;12.35;2.67;;;7.90;99.90;;;;;;5073251;28;20070;-74
2021/12/03 05:34:38;;;;;;;11.27;2.05;;;7.90;99.90;;;;;;5072847;28;20033;-75
2021/12/03 05:37:06;;;;;;;14.30;2.60;;;7.90;99.90;;;;;;5072610;28;20033;-75
2021/12/03 05:39:33;;;;;;;11.98;2.90;;;7.90;99.90;;;;;;5073023;28;20029;-75
2021/12/03 05:41:59;;;;;;;11.25;2.33;;;7.80;99.90;;;;;;5072203;28;20064;-75
2021/12/03 05:44:25;;;;;;;14.68;3.08;;;7.80;99.90;;;;;;5072767;28;20441;-74
2021/12/03 05:46:51;;;;;;;17.60;3.00;;;7.80;99.90;;;;;;5072134;28;20067;-75
2021/12/03 05:49:16;;;;;;;10.00;2.03;;;7.80;99.90;;;;;;5071620;28;20032;-75
2021/12/03 05:51:43;;;;;;;9.90;2.35;;;7.80;99.90;;;;;;5072377;28;20078;-76
2021/12/03 05:54:09;;;;;;;18.30;2.67;;;7.80;99.90;;;;;;5078769;28;20142;-75
2021/12/03 05:56:35;;;;;;;13.18;2.92;;;7.80;99.90;;;;;;5072742;28;20024;-74
2021/12/03 05:59:02;;;;;;;9.50;2.85;;;7.80;99.90;;;;;;5071755;28;20565;-75
2021/12/03 06:01:28;;;;;;;12.30;2.38;;;7.80;99.90;;;;;;5072519;28;20379;-74
2021/12/03 06:03:54;;;;;;;12.55;2.63;;;7.80;99.90;;;;;;5069857;28;20021;-74
2021/12/03 06:06:21;;;;;;;10.93;2.17;;;7.80;99.90;;;;;;5072090;28;20432;-75
2021/12/03 06:08:47;;;;;;;15.60;3.15;;;7.80;99.90;;;;;;5071624;28;20024;-75
2021/12/03 06:11:13;;;;;;;14.63;2.72;;;7.80;99.90;;;;;;5072527;28;20391;-74
2021/12/03 06:13:39;;;;;;;15.55;2.60;;;7.80;99.90;;;;;;5072337;28;20469;-74
2021/12/03 06:16:07;;;;;;;16.10;2.40;;;7.80;99.90;;;;;;5071635;28;20099;-75
2021/12/03 06:18:33;;;;;;;13.48;3.00;;;7.80;99.90;;;;;;5071262;28;20119;-75
2021/12/03 06:21:00;;;;;;;11.82;2.33;;;7.80;99.90;;;;;;5071892;28;20421;-76
2021/12/03 06:23:26;;;;;;;11.27;2.40;;;7.80;99.90;;;;;;5072440;28;20027;-75
2021/12/03 06:25:51;;;;;;;19.50;3.65;;;7.80;99.90;;;;;;5071398;28;20453;-75
2021/12/03 06:28:17;;;;;;;21.38;3.13;;;7.80;99.90;;;;;;5072262;28;20467;-75
2021/12/03 06:30:43;;;;;;;12.20;2.40;;;7.80;99.90;;;;;;5071841;28;20102;-77
2021/12/03 06:33:09;;;;;;;13.65;2.88;;;7.80;99.90;;;;;;5071944;28;20095;-75
2021/12/03 06:35:35;;;;;;;14.57;3.15;;;7.80;99.90;;;;;;5071995;28;20025;-75
2021/12/03 06:38:00;;;;;;;17.10;2.65;;;7.80;99.90;;;;;;5071225;28;20032;-75
2021/12/03 06:40:27;;;;;;;16.70;3.55;;;7.80;99.90;;;;;;5072395;28;20082;-75
2021/12/03 06:42:53;;;;;;;14.57;3.05;;;7.70;99.90;;;;;;5069962;28;20105;-75
2021/12/03 06:45:19;;;;;;;15.93;2.83;;;7.70;99.90;;;;;;5072168;28;20111;-75
2021/12/03 06:47:46;;;;;;;11.68;2.85;;;7.70;99.90;;;;;;5071395;28;20065;-77
2021/12/03 06:50:18;;;;;;;14.48;2.58;;;7.60;99.90;;;;;;5070352;28;20482;-75
2021/12/03 06:52:53;;;;;;;15.60;3.08;;;7.60;99.90;;;;;;5071747;28;20131;-75
2021/12/03 06:55:19;;;;;;;14.32;2.92;;;7.60;99.90;;;;;;5072043;28;20360;-75
2021/12/03 06:57:45;;;;;;;18.38;3.63;;;7.60;99.90;;;;;;5071806;28;20082;-75
2021/12/03 07:00:15;;;;;;;14.98;3.38;;;7.50;99.90;;;;;;5070022;28;20024;-75
2021/12/03 07:02:41;;;;;;;12.65;3.58;;;7.50;99.90;;;;;;5071478;28;20479;-75
2021/12/03 07:05:08;;;;;;;19.15;3.97;;;7.50;99.90;;;;;;5071071;28;20029;-75
2021/12/03 07:07:34;;;;;;;17.23;3.75;;;7.40;99.90;;;;;;5071596;28;20032;-75
2021/12/03 07:10:01;;;;;;;19.27;3.38;;;7.40;99.90;;;;;;5071010;28;20017;-75
2021/12/03 07:12:27;;;;;;;15.18;2.95;;;7.40;99.90;;;;;;5071534;28;20040;-75
2021/12/03 07:14:53;;;;;;;21.83;3.10;;;7.40;99.90;;;;;;5071264;28;20039;-75
2021/12/03 07:17:19;;;;;;;11.48;2.22;;;7.40;99.90;;;;;;5075689;28;20100;-75
2021/12/03 07:19:45;;;;;;;14.45;3.58;;;7.40;99.90;;;;;;5075796;28;20028;-75
2021/12/03 07:22:10;;;;;;;14.55;3.10;;;7.40;99.90;;;;;;5074555;28;20044;-75
2021/12/03 07:24:36;;;;;;;14.50;3.80;;;7.40;99.90;;;;;;5075542;28;20024;-74
2021/12/03 07:27:02;;;;;;;17.10;2.97;;;7.40;99.90;;;;;;5074728;28;20056;-75
2021/12/03 07:29:28;;;;;;;15.65;3.50;;;7.40;99.90;;;;;;5075523;28;20024;-75
2021/12/03 07:31:54;;;;;;;16.23;3.15;;;7.40;99.90;;;;;;5074466;28;20082;-75
2021/12/03 07:34:20;;;;;;;16.25;3.78;;;7.30;99.90;;;;;;5075216;28;20025;-74
2021/12/03 07:36:46;;;;;;;16.58;3.38;;;7.30;99.90;;;;;;5075065;28;20425;-75
2021/12/03 07:39:12;;;;;;;13.38;2.83;;;7.30;99.90;;;;;;5074160;28;20032;-75
2021/12/03 07:41:40;;;;;;;15.50;2.88;;;7.30;99.90;;;;;;5080783;28;20025;-75
2021/12/03 07:44:07;;;;;;;17.02;2.83;;;7.30;99.90;;;;;;5074482;28;20016;-75
2021/12/03 07:46:33;;;;;;;12.15;2.95;;;7.30;99.90;;;;;;5075278;28;20028;-75
2021/12/03 07:48:59;;;;;;;15.13;2.97;;;7.30;99.90;;;;;;5073159;28;20064;-75
2021/12/03 07:51:26;;;;;;;18.55;3.13;;;7.30;99.90;;;;;;5075119;28;20071;-75
2021/12/03 07:53:52;;;;;;;16.25;2.38;;;7.30;99.90;;;;;;5074295;28;20087;-76
2021/12/03 07:56:18;;;;;;;14.52;2.72;;;7.20;99.90;;;;;;5075212;28;20064;-74
2021/12/03 07:58:44;;;;;;;18.60;3.85;;;7.20;99.90;;;;;;5074159;28;20432;-75
2021/12/03 08:01:09;;;;;;;17.95;3.20;;;7.20;99.90;;;;;;5074022;28;20202;-74
2021/12/03 08:03:35;;;;;;;15.38;2.85;;;7.20;99.90;;;;;;5074635;28;20104;-74
2021/12/03 08:06:08;;;;;;;13.02;3.30;;;7.20;99.90;;;;;;5072729;28;20092;-74
2021/12/03 08:08:36;;;;;;;17.75;3.20;;;7.20;99.90;;;;;;5074450;28;20028;-75
2021/12/03 08:11:02;;;;;;;12.10;3.10;;;7.20;99.90;;;;;;5073792;28;20198;-75
2021/12/03 08:13:28;;;;;;;18.92;3.97;;;7.20;99.90;;;;;;5074853;28;20481;-74
2021/12/03 08:15:53;;;;;;;9.75;3.00;;;7.20;99.90;;;;;;5073997;28;20056;-75
2021/12/03 08:18:20;;;;;;;17.23;3.17;;;7.20;99.90;;;;;;5074439;28;20028;-74
2021/12/03 08:20:46;;;;;;;15.55;3.53;;;7.30;99.90;;;;;;5074446;28;20035;-73
2021/12/03 08:23:12;;;;;;;17.67;3.75;;;7.30;99.90;;;;;;5073835;28;20029;-73
2021/12/03 08:25:39;;;;;;;18.23;3.05;;;7.40;99.90;;;;;;5074059;28;20029;-73
2021/12/03 08:28:05;;;;;;;15.68;3.20;;;7.40;99.90;;;;;;5072346;28;20090;-75
2021/12/03 08:30:31;;;;;;;14.00;2.95;;;7.40;99.90;;;;;;5074233;28;20031;-73
2021/12/03 08:32:58;;;;;;;15.48;3.92;;;7.40;99.90;;;;;;5073559;28;20028;-75
2021/12/03 08:35:24;;;;;;;10.82;2.90;;;7.40;99.90;;;;;;5074323;28;20028;-74
2021/12/03 08:37:50;;;;;;;21.13;3.95;;;7.40;99.90;;;;;;5074040;28;20038;-75
2021/12/03 08:40:20;;;;;;;11.68;3.15;;;7.50;99.90;;;;;;5073118;28;20074;-75
2021/12/03 08:42:47;;;;;;;11.40;3.28;;;7.50;99.90;;;;;;5068430;28;20030;-75
2021/12/03 08:45:16;;;;;;;17.42;3.50;;;7.50;99.90;;;;;;5079343;28;20036;-75
2021/12/03 08:47:44;;;;;;;13.45;2.97;;;7.50;99.90;;;;;;5085466;28;20024;-75
2021/12/03 08:50:16;;;;;;;10.40;2.75;;;7.50;99.90;;;;;;5073117;28;20483;-75
2021/12/03 08:52:53;;;;;;;16.80;3.40;;;7.50;99.90;;;;;;5073519;28;20413;-75
2021/12/03 08:55:19;;;;;;;18.20;3.65;;;7.50;99.90;;;;;;5073184;28;20293;-75
2021/12/03 08:57:44;;;;;;;17.05;3.15;;;7.50;99.90;;;;;;5077702;28;20028;-75
2021/12/03 09:00:15;;;;;;;15.75;3.38;;;7.50;99.90;;;;;;5074780;28;20068;-75
2021/12/03 09:02:42;;;;;;;16.27;2.83;;;7.50;99.90;;;;;;5073786;28;20056;-74
2021/12/03 09:05:08;;;;;;;12.65;3.38;;;7.50;99.90;;;;;;5071698;28;20129;-74
2021/12/03 09:07:35;;;;;;;17.63;4.15;;;7.50;99.90;;;;;;5072162;28;20031;-74
2021/12/03 09:10:01;;;;;;;18.25;3.63;;;7.50;99.90;;;;;;5071960;28;20047;-75
2021/12/03 09:12:27;;;;;;;10.90;3.20;;;7.50;99.90;;;;;;5072215;28;20028;-75
2021/12/03 09:14:58;;;;;;;18.58;4.25;;;7.50;99.90;;;;;;5073113;28;20097;-74
2021/12/03 09:25:11;;;;;;;14.40;3.67;;;7.60;99.90;;;;;;5074576;28;20433;-73
2021/12/03 09:27:37;;;;;;;13.18;3.03;;;7.60;99.90;;;;;;5079771;28;20029;-74
2021/12/03 09:30:12;;;;;;;16.90;3.58;;;7.60;99.90;;;;;;5071844;28;20138;-73
2021/12/03 09:32:37;;;;;;;17.33;3.60;;;7.60;99.90;;;;;;5073065;28;20040;-74
2021/12/03 09:35:04;;;;;;;19.65;3.55;;;7.60;99.90;;;;;;5071834;28;20494;-74
2021/12/03 09:37:30;;;;;;;18.02;3.70;;;7.60;99.90;;;;;;5071210;28;20126;-74
2021/12/03 09:40:01;;;;;;;15.80;4.47;;;7.60;99.90;;;;;;5084935;28;20035;-76
2021/12/03 09:42:27;;;;;;;13.35;4.15;;;7.60;99.90;;;;;;5093107;28;20044;-74
2021/12/03 09:44:53;;;;;;;16.58;3.95;;;7.60;99.90;;;;;;5091108;28;20039;-74
2021/12/03 09:47:19;;;;;;;20.73;4.07;;;7.60;99.90;;;;;;5091324;28;20218;-74
2021/12/03 09:49:52;;;;;;;24.45;5.35;;;7.60;99.90;;;;;;5092345;28;20080;-75
2021/12/03 09:52:26;;;;;;;;;;;7.60;99.90;;;;;;5092143;28;20035;-73
2021/12/03 09:55:00;;;;;;;13.68;3.78;;;7.60;99.90;;;;;;5091280;28;19924;-74
2021/12/03 09:57:45;;;;;;;15.73;3.65;;;7.60;99.90;;;;;;5092010;28;20047;-74
2021/12/03 10:02:57;;;;;;;17.02;4.28;;;7.60;99.90;;;;;;5091938;28;20478;-73
2021/12/03 10:13:46;;;;;;;15.50;4.38;;;7.60;99.90;;;;;;5095167;28;20062;-73
2021/12/03 10:19:22;;;;;;;19.45;3.97;;;7.70;99.90;;;;;;5090178;28;20511;-76
2021/12/03 10:52:04;;;;;;;23.15;4.38;;;8.00;99.90;;;;;;5051006;28;20037;-73
2021/12/03 11:11:34;;;;;;;15.50;3.75;;;8.20;99.90;;;;;;5079519;28;20032;-75
2021/12/03 11:26:10;;;;;;;22.13;3.95;;;8.30;99.90;;;;;;5091718;28;20524;-73
2021/12/03 11:42:06;;;;;;;18.52;3.83;;;8.30;99.90;;;;;;5090878;28;20039;-73
2021/12/03 11:58:45;;;;;;;20.35;4.28;;;8.30;99.90;;;;;;5091367;28;20047;-72
2021/12/03 12:04:41;;;;;;;17.73;4.35;;;8.40;99.90;;;;;;5081273;28;20035;-72
2021/12/03 12:22:18;;;;;;;21.33;4.28;;;8.40;99.90;;;;;;5094839;28;20070;-74
2021/12/03 13:19:16;;;;;;;25.50;5.60;;;8.30;99.90;;;;;;5067469;28;20074;-73
2021/12/03 13:37:08;;;;;;;17.05;4.15;;;8.40;99.90;;;;;;5069898;28;20120;-74
2021/12/03 14:00:59;;;;;;;22.63;4.85;;;8.30;99.90;;;;;;5092331;28;20050;-73
2021/12/03 14:40:10;;;;;;;24.30;5.45;;;8.30;99.90;;;;;;5091119;28;20485;-73
2021/12/03 14:48:29;;;;;;;23.42;6.75;;;8.30;99.90;;;;;;5091972;28;20108;-73
2021/12/03 14:54:19;;;;;;;22.30;7.07;;;8.30;99.90;;;;;;5091587;28;20059;-74
2021/12/03 14:57:05;;;;;;;17.77;5.38;;;8.30;99.90;;;;;;5090548;28;20510;-74
2021/12/03 14:59:32;;;;;;;20.25;5.80;;;8.30;99.90;;;;;;5091141;28;20114;-74
2021/12/03 15:02:25;;;;;;;19.80;5.03;;;8.30;99.90;;;;;;5091339;28;20423;-74
2021/12/03 15:07:40;;;;;;;16.02;5.20;;;8.20;99.90;;;;;;5091128;28;20028;-74
2021/12/03 15:10:12;;;;;;;21.20;5.75;;;8.30;99.90;;;;;;5091980;28;20073;-73
2021/12/03 15:23:31;;;;;;;25.10;5.65;;;8.10;99.90;;;;;;5091577;28;20039;-75
2021/12/03 15:26:05;;;;;;;19.00;5.10;;;8.10;99.90;;;;;;5091763;28;20109;-75
2021/12/03 15:31:02;;;;;;;22.00;5.13;;;8.10;99.90;;;;;;5091486;28;20028;-73
2021/12/03 15:33:44;;;;;;;16.48;4.63;;;8.00;99.90;;;;;;5090314;28;20039;-74
2021/12/03 15:36:23;;;;;;;16.48;4.85;;;8.00;99.90;;;;;;5091594;28;20071;-75
2021/12/03 15:52:53;;;;;;;20.73;4.95;;;7.90;99.90;;;;;;5095200;28;20035;-74
2021/12/03 16:08:27;;;;;;;20.52;5.82;;;7.90;99.90;;;;;;5094174;28;20052;-74
2021/12/03 16:11:06;;;;;;;25.92;6.03;;;7.80;99.90;;;;;;5094759;28;20051;-77
2021/12/03 16:17:06;;;;;;;17.65;6.07;;;7.80;99.90;;;;;;5094084;28;20535;-76
2021/12/03 16:22:10;;;;;;;18.77;7.43;;;7.80;99.90;;;;;;5085731;28;20089;-74
2021/12/03 16:53:32;;;;;;;23.70;6.75;;;7.80;99.90;;;;;;5093457;28;20044;-73
2021/12/03 16:56:05;;;;;;;20.10;6.47;;;7.80;99.90;;;;;;5093834;28;20047;-73
2021/12/03 16:58:33;;;;;;;15.07;5.97;;;7.80;99.90;;;;;;5092571;28;20366;-73
2021/12/03 17:01:07;;;;;;;22.90;6.88;;;7.80;99.90;;;;;;5093167;28;20498;-73
2021/12/03 17:28:43;;;;;;;21.23;6.15;;;7.90;99.90;;;;;;5092467;28;20115;-73
2021/12/03 18:00:29;;;;;;;58.92;21.55;;;7.90;99.90;;;;;;5071526;28;20180;-75
2021/12/03 18:03:04;;;;;;;49.45;16.20;;;7.80;99.90;;;;;;5092127;28;20032;-73
2021/12/03 18:08:11;;;;;;;32.95;11.13;;;7.80;99.90;;;;;;5091870;28;20031;-74
2021/12/03 18:43:36;;;;;;;22.88;7.00;;;7.90;99.90;;;;;;5091309;28;20035;-72
2021/12/03 18:54:33;;;;;;;15.85;6.15;;;7.90;99.90;;;;;;5067479;28;20169;-74
2021/12/03 18:57:08;;;;;;;17.67;5.53;;;7.90;99.90;;;;;;5068684;28;20039;-72
2021/12/03 18:59:38;;;;;;;18.25;6.25;;;7.90;99.90;;;;;;5069613;28;20032;-73
2021/12/03 19:02:07;;;;;;;18.60;6.63;;;7.90;99.90;;;;;;5069049;28;20036;-72
2021/12/03 19:04:42;;;;;;;20.55;6.95;;;7.80;99.90;;;;;;5067612;28;20028;-72
2021/12/03 19:07:13;;;;;;;24.33;7.13;;;7.90;99.90;;;;;;5068143;28;20032;-72
2021/12/03 19:09:43;;;;;;;18.75;5.80;;;7.80;99.90;;;;;;5067687;28;20409;-73
2021/12/03 19:12:15;;;;;;;17.25;5.20;;;7.80;99.90;;;;;;5070130;28;20147;-72
2021/12/03 19:14:50;;;;;;;19.45;6.18;;;7.80;99.90;;;;;;5072288;28;20036;-73
2021/12/03 19:17:18;;;;;;;14.82;5.05;;;7.80;99.90;;;;;;5072704;28;20368;-73
2021/12/03 19:19:46;;;;;;;16.70;5.13;;;7.80;99.90;;;;;;5081799;28;20107;-73
2021/12/03 19:22:14;;;;;;;19.92;4.68;;;7.80;99.90;;;;;;5095215;28;20074;-73
2021/12/03 19:24:39;;;;;;;20.67;5.13;;;7.80;99.90;;;;;;5094239;28;20454;-73
2021/12/03 19:27:07;;;;;;;17.27;5.47;;;7.80;99.90;;;;;;5095016;28;20027;-74
2021/12/03 19:29:37;;;;;;;18.38;5.93;;;7.80;99.90;;;;;;5074952;28;20471;-72
2021/12/03 19:32:03;;;;;;;22.15;5.68;;;7.80;99.90;;;;;;5075142;28;20454;-72
2021/12/03 19:34:29;;;;;;;18.73;4.80;;;7.80;99.90;;;;;;5072791;28;20040;-73
2021/12/03 19:36:55;;;;;;;18.40;4.63;;;7.80;99.90;;;;;;5073333;28;20162;-73
2021/12/03 19:39:24;;;;;;;17.23;4.60;;;7.80;99.90;;;;;;5073320;28;20017;-74
2021/12/03 19:41:57;;;;;;;23.75;5.25;;;7.80;99.90;;;;;;5074578;28;20090;-73
2021/12/03 19:44:34;;;;;;;18.67;5.63;;;7.80;99.90;;;;;;5073034;28;20468;-75
2021/12/03 19:47:00;;;;;;;18.27;5.43;;;7.80;99.90;;;;;;5074537;28;20029;-73
2021/12/03 19:49:48;;;;;;;17.23;5.28;;;7.80;99.90;;;;;;5074132;28;20379;-75
2021/12/03 19:54:48;;;;;;;22.33;5.15;;;7.80;99.90;;;;;;5068403;28;20090;-74
2021/12/03 19:57:14;;;;;;;18.85;3.97;;;7.80;99.90;;;;;;5073532;28;20025;-74
2021/12/03 19:59:40;;;;;;;21.98;5.80;;;7.80;99.90;;;;;;5073417;28;20036;-74
2021/12/03 20:02:05;;;;;;;16.00;4.72;;;7.80;99.90;;;;;;5074361;28;20513;-74
2021/12/03 20:04:31;;;;;;;16.23;4.05;;;7.80;99.90;;;;;;5073654;28;20025;-73
2021/12/03 20:06:57;;;;;;;17.08;4.00;;;7.70;99.90;;;;;;5074425;28;20077;-73
2021/12/03 20:09:28;;;;;;;17.02;4.15;;;7.70;99.90;;;;;;5073768;28;20025;-73
2021/12/03 20:11:57;;;;;;;29.80;4.82;;;7.70;99.90;;;;;;5074263;28;20043;-72
2021/12/03 20:14:23;;;;;;;17.63;4.68;;;7.70;99.90;;;;;;5074788;28;20070;-76
2021/12/03 20:21:51;;;;;;;18.08;4.53;;;7.60;99.90;;;;;;5072701;28;20266;-73
2021/12/03 20:29:32;;;;;;;20.35;4.47;;;7.40;99.90;;;;;;5073200;28;20109;-73